sensor_id;sensor_type;location;lat;lon;timestamp;pressure;altitude;pressure_sealevel;temperature
19196;BMP280;9730;48.926;11.376;2023-06-14T00:01:38;96877.28;;;11.36
19196;BMP280;9730;48.926;11.376;2023-06-14T00:04:05;96882.25;;;11.51
19196;BMP280;9730;48.926;11.376;2023-06-14T00:06:35;96886.56;;;11.49
19196;BMP280;9730;48.926;11.376;2023-06-14T00:09:02;96888.88;;;11.38
19196;BMP280;9730;48.926;11.376;2023-06-14T00:11:31;96883.41;;;11.46
19196;BMP280;9730;48.926;11.376;2023-06-14T00:13:59;96881.34;;;11.52
19196;BMP280;9730;48.926;11.376;2023-06-14T00:16:28;96869.22;;;11.29
19196;BMP280;9730;48.926;11.376;2023-06-14T00:18:56;96887.28;;;11.23
19196;BMP280;9730;48.926;11.376;2023-06-14T00:21:24;96893.81;;;11.12
19196;BMP280;9730;48.926;11.376;2023-06-14T00:23:57;96891.06;;;11.16
19196;BMP280;9730;48.926;11.376;2023-06-14T00:26:25;96893.47;;;11.18
19196;BMP280;9730;48.926;11.376;2023-06-14T00:28:53;96893.91;;;11.24
19196;BMP280;9730;48.926;11.376;2023-06-14T00:31:21;96889.53;;;11.28
19196;BMP280;9730;48.926;11.376;2023-06-14T00:33:50;96875.81;;;11.32
19196;BMP280;9730;48.926;11.376;2023-06-14T00:36:17;96875.00;;;11.31
19196;BMP280;9730;48.926;11.376;2023-06-14T00:38:45;96871.28;;;11.37
19196;BMP280;9730;48.926;11.376;2023-06-14T00:41:13;96864.09;;;11.31
19196;BMP280;9730;48.926;11.376;2023-06-14T00:43:41;96870.97;;;11.43
19196;BMP280;9730;48.926;11.376;2023-06-14T00:46:09;96868.50;;;11.27
19196;BMP280;9730;48.926;11.376;2023-06-14T00:48:37;96877.59;;;11.30
19196;BMP280;9730;48.926;11.376;2023-06-14T00:51:07;96879.84;;;11.20
19196;BMP280;9730;48.926;11.376;2023-06-14T00:53:35;96872.03;;;11.11
19196;BMP280;9730;48.926;11.376;2023-06-14T00:56:03;96871.84;;;11.14
19196;BMP280;9730;48.926;11.376;2023-06-14T00:58:32;96890.19;;;10.59
19196;BMP280;9730;48.926;11.376;2023-06-14T01:00:59;96897.00;;;10.57
19196;BMP280;9730;48.926;11.376;2023-06-14T01:03:28;96897.78;;;10.73
19196;BMP280;9730;48.926;11.376;2023-06-14T01:06:02;96896.34;;;10.69
19196;BMP280;9730;48.926;11.376;2023-06-14T01:08:42;96887.69;;;10.73
19196;BMP280;9730;48.926;11.376;2023-06-14T01:11:16;96883.94;;;10.80
19196;BMP280;9730;48.926;11.376;2023-06-14T01:13:46;96892.75;;;10.73
19196;BMP280;9730;48.926;11.376;2023-06-14T01:16:14;96896.50;;;10.66
19196;BMP280;9730;48.926;11.376;2023-06-14T01:18:43;96901.25;;;10.57
19196;BMP280;9730;48.926;11.376;2023-06-14T01:21:20;96893.50;;;10.59
19196;BMP280;9730;48.926;11.376;2023-06-14T01:23:50;96885.00;;;10.47
19196;BMP280;9730;48.926;11.376;2023-06-14T01:26:19;96901.69;;;10.34
19196;BMP280;9730;48.926;11.376;2023-06-14T01:28:48;96894.69;;;10.39
19196;BMP280;9730;48.926;11.376;2023-06-14T01:31:19;96896.00;;;10.30
19196;BMP280;9730;48.926;11.376;2023-06-14T01:33:48;96895.41;;;10.25
19196;BMP280;9730;48.926;11.376;2023-06-14T01:36:17;96901.22;;;10.27
19196;BMP280;9730;48.926;11.376;2023-06-14T01:38:46;96895.03;;;10.33
19196;BMP280;9730;48.926;11.376;2023-06-14T01:41:18;96901.28;;;10.41
19196;BMP280;9730;48.926;11.376;2023-06-14T01:43:47;96897.22;;;10.23
19196;BMP280;9730;48.926;11.376;2023-06-14T01:46:16;96891.47;;;10.21
19196;BMP280;9730;48.926;11.376;2023-06-14T01:48:45;96889.91;;;10.19
19196;BMP280;9730;48.926;11.376;2023-06-14T01:51:13;96896.19;;;9.97
19196;BMP280;9730;48.926;11.376;2023-06-14T01:53:41;96888.63;;;9.49
19196;BMP280;9730;48.926;11.376;2023-06-14T01:56:09;96885.97;;;9.67
19196;BMP280;9730;48.926;11.376;2023-06-14T01:58:38;96895.50;;;9.78
19196;BMP280;9730;48.926;11.376;2023-06-14T02:01:07;96892.72;;;9.82
19196;BMP280;9730;48.926;11.376;2023-06-14T02:03:34;96898.09;;;9.76
19196;BMP280;9730;48.926;11.376;2023-06-14T02:06:04;96899.06;;;9.74
19196;BMP280;9730;48.926;11.376;2023-06-14T02:08:32;96907.09;;;9.33
19196;BMP280;9730;48.926;11.376;2023-06-14T02:11:00;96899.56;;;9.48
19196;BMP280;9730;48.926;11.376;2023-06-14T02:13:27;96894.72;;;9.60
19196;BMP280;9730;48.926;11.376;2023-06-14T02:15:56;96904.34;;;9.69
19196;BMP280;9730;48.926;11.376;2023-06-14T02:18:27;96893.69;;;9.80
19196;BMP280;9730;48.926;11.376;2023-06-14T02:20:55;96891.16;;;9.64
19196;BMP280;9730;48.926;11.376;2023-06-14T02:23:23;96914.88;;;9.60
19196;BMP280;9730;48.926;11.376;2023-06-14T02:25:50;96910.00;;;9.73
19196;BMP280;9730;48.926;11.376;2023-06-14T02:28:18;96911.94;;;10.00
19196;BMP280;9730;48.926;11.376;2023-06-14T02:30:46;96902.88;;;9.81
19196;BMP280;9730;48.926;11.376;2023-06-14T02:33:16;96901.41;;;9.92
19196;BMP280;9730;48.926;11.376;2023-06-14T02:35:44;96909.06;;;9.91
19196;BMP280;9730;48.926;11.376;2023-06-14T02:38:12;96920.94;;;9.56
19196;BMP280;9730;48.926;11.376;2023-06-14T02:40:40;96919.81;;;9.62
19196;BMP280;9730;48.926;11.376;2023-06-14T02:43:09;96912.59;;;9.56
19196;BMP280;9730;48.926;11.376;2023-06-14T02:45:38;96906.84;;;9.54
19196;BMP280;9730;48.926;11.376;2023-06-14T02:48:06;96908.16;;;9.44
19196;BMP280;9730;48.926;11.376;2023-06-14T02:50:35;96909.97;;;9.42
19196;BMP280;9730;48.926;11.376;2023-06-14T02:53:03;96914.13;;;9.43
19196;BMP280;9730;48.926;11.376;2023-06-14T02:55:31;96909.69;;;9.31
19196;BMP280;9730;48.926;11.376;2023-06-14T02:57:59;96911.81;;;9.39
19196;BMP280;9730;48.926;11.376;2023-06-14T03:00:27;96912.53;;;9.08
19196;BMP280;9730;48.926;11.376;2023-06-14T03:02:56;96919.91;;;9.28
19196;BMP280;9730;48.926;11.376;2023-06-14T03:05:24;96910.78;;;9.26
19196;BMP280;9730;48.926;11.376;2023-06-14T03:07:55;96922.72;;;9.22
19196;BMP280;9730;48.926;11.376;2023-06-14T03:10:23;96922.06;;;9.19
19196;BMP280;9730;48.926;11.376;2023-06-14T03:12:51;96921.19;;;9.20
19196;BMP280;9730;48.926;11.376;2023-06-14T03:15:20;96915.03;;;9.25
19196;BMP280;9730;48.926;11.376;2023-06-14T03:17:50;96921.09;;;9.21
19196;BMP280;9730;48.926;11.376;2023-06-14T03:20:20;96913.31;;;9.26
19196;BMP280;9730;48.926;11.376;2023-06-14T03:22:48;96910.78;;;9.26
19196;BMP280;9730;48.926;11.376;2023-06-14T03:25:17;96917.25;;;8.81
19196;BMP280;9730;48.926;11.376;2023-06-14T03:27:47;96919.25;;;9.08
19196;BMP280;9730;48.926;11.376;2023-06-14T03:30:15;96922.59;;;9.08
19196;BMP280;9730;48.926;11.376;2023-06-14T03:32:45;96919.84;;;9.13
19196;BMP280;9730;48.926;11.376;2023-06-14T03:35:13;96913.31;;;9.26
19196;BMP280;9730;48.926;11.376;2023-06-14T03:37:44;96914.34;;;9.22
19196;BMP280;9730;48.926;11.376;2023-06-14T03:40:15;96920.63;;;9.30
19196;BMP280;9730;48.926;11.376;2023-06-14T03:42:48;96924.53;;;9.36
19196;BMP280;9730;48.926;11.376;2023-06-14T03:45:15;96928.28;;;9.44
19196;BMP280;9730;48.926;11.376;2023-06-14T03:47:43;96933.56;;;9.40
19196;BMP280;9730;48.926;11.376;2023-06-14T03:50:11;96931.84;;;9.57
19196;BMP280;9730;48.926;11.376;2023-06-14T03:52:39;96928.19;;;9.62
19196;BMP280;9730;48.926;11.376;2023-06-14T03:55:09;96940.28;;;9.56
19196;BMP280;9730;48.926;11.376;2023-06-14T03:57:42;96941.91;;;9.57
19196;BMP280;9730;48.926;11.376;2023-06-14T04:00:15;96954.25;;;9.12
19196;BMP280;9730;48.926;11.376;2023-06-14T04:02:44;96952.25;;;9.02
19196;BMP280;9730;48.926;11.376;2023-06-14T04:05:12;96961.16;;;9.09
19196;BMP280;9730;48.926;11.376;2023-06-14T04:07:46;96963.50;;;9.12
19196;BMP280;9730;48.926;11.376;2023-06-14T04:10:15;96975.34;;;9.27
19196;BMP280;9730;48.926;11.376;2023-06-14T04:12:44;96966.69;;;9.32
19196;BMP280;9730;48.926;11.376;2023-06-14T04:15:12;96954.53;;;9.23
19196;BMP280;9730;48.926;11.376;2023-06-14T04:17:47;96973.78;;;8.91
19196;BMP280;9730;48.926;11.376;2023-06-14T04:20:15;96976.16;;;9.27
19196;BMP280;9730;48.926;11.376;2023-06-14T04:22:43;96971.09;;;9.44
19196;BMP280;9730;48.926;11.376;2023-06-14T04:25:11;96960.09;;;9.62
19196;BMP280;9730;48.926;11.376;2023-06-14T04:27:41;96959.81;;;9.68
19196;BMP280;9730;48.926;11.376;2023-06-14T04:30:11;96957.97;;;9.54
19196;BMP280;9730;48.926;11.376;2023-06-14T04:32:47;96962.28;;;9.52
19196;BMP280;9730;48.926;11.376;2023-06-14T04:35:15;96960.50;;;9.54
19196;BMP280;9730;48.926;11.376;2023-06-14T04:37:45;96962.09;;;9.72
19196;BMP280;9730;48.926;11.376;2023-06-14T04:40:12;96968.84;;;9.72
19196;BMP280;9730;48.926;11.376;2023-06-14T04:42:40;96956.81;;;9.77
19196;BMP280;9730;48.926;11.376;2023-06-14T04:45:12;96971.91;;;9.77
19196;BMP280;9730;48.926;11.376;2023-06-14T04:47:43;96958.97;;;9.84
19196;BMP280;9730;48.926;11.376;2023-06-14T04:50:12;96963.91;;;9.86
19196;BMP280;9730;48.926;11.376;2023-06-14T04:52:39;96963.28;;;9.98
19196;BMP280;9730;48.926;11.376;2023-06-14T04:55:09;96960.56;;;10.02
19196;BMP280;9730;48.926;11.376;2023-06-14T04:57:37;96968.72;;;9.90
19196;BMP280;9730;48.926;11.376;2023-06-14T05:00:08;96968.88;;;9.87
19196;BMP280;9730;48.926;11.376;2023-06-14T05:02:38;96963.56;;;10.08
19196;BMP280;9730;48.926;11.376;2023-06-14T05:05:07;96966.41;;;10.18
19196;BMP280;9730;48.926;11.376;2023-06-14T05:07:36;96967.28;;;10.17
19196;BMP280;9730;48.926;11.376;2023-06-14T05:10:07;96965.53;;;10.34
19196;BMP280;9730;48.926;11.376;2023-06-14T05:12:35;96972.41;;;10.31
19196;BMP280;9730;48.926;11.376;2023-06-14T05:15:05;96969.75;;;10.49
19196;BMP280;9730;48.926;11.376;2023-06-14T05:17:33;96965.72;;;10.76
19196;BMP280;9730;48.926;11.376;2023-06-14T05:20:02;96965.56;;;10.63
19196;BMP280;9730;48.926;11.376;2023-06-14T05:22:31;96983.66;;;10.56
19196;BMP280;9730;48.926;11.376;2023-06-14T05:25:00;96981.81;;;10.73
19196;BMP280;9730;48.926;11.376;2023-06-14T05:27:28;96973.50;;;10.87
19196;BMP280;9730;48.926;11.376;2023-06-14T05:29:56;96976.44;;;10.95
19196;BMP280;9730;48.926;11.376;2023-06-14T05:32:25;96978.16;;;11.08
19196;BMP280;9730;48.926;11.376;2023-06-14T05:34:53;96975.41;;;11.13
19196;BMP280;9730;48.926;11.376;2023-06-14T05:37:20;96984.25;;;11.19
19196;BMP280;9730;48.926;11.376;2023-06-14T05:39:48;96980.50;;;11.26
19196;BMP280;9730;48.926;11.376;2023-06-14T05:42:17;96991.13;;;11.31
19196;BMP280;9730;48.926;11.376;2023-06-14T05:44:45;96996.09;;;11.48
19196;BMP280;9730;48.926;11.376;2023-06-14T05:47:12;96986.50;;;11.53
19196;BMP280;9730;48.926;11.376;2023-06-14T05:49:40;96997.91;;;12.02
19196;BMP280;9730;48.926;11.376;2023-06-14T05:52:08;96979.81;;;13.65
19196;BMP280;9730;48.926;11.376;2023-06-14T05:54:36;96956.69;;;15.12
19196;BMP280;9730;48.926;11.376;2023-06-14T05:57:04;96923.84;;;16.42
19196;BMP280;9730;48.926;11.376;2023-06-14T05:59:34;96884.31;;;17.70
19196;BMP280;9730;48.926;11.376;2023-06-14T06:02:02;96868.13;;;18.20
19196;BMP280;9730;48.926;11.376;2023-06-14T06:04:29;96817.25;;;19.39
19196;BMP280;9730;48.926;11.376;2023-06-14T06:06:57;96788.47;;;20.35
19196;BMP280;9730;48.926;11.376;2023-06-14T06:09:25;96784.75;;;19.85
19196;BMP280;9730;48.926;11.376;2023-06-14T06:11:52;96763.25;;;20.82
19196;BMP280;9730;48.926;11.376;2023-06-14T06:14:20;96752.47;;;21.30
19196;BMP280;9730;48.926;11.376;2023-06-14T06:16:50;96727.97;;;21.27
19196;BMP280;9730;48.926;11.376;2023-06-14T06:19:19;96770.16;;;21.07
19196;BMP280;9730;48.926;11.376;2023-06-14T06:21:46;96752.81;;;21.60
19196;BMP280;9730;48.926;11.376;2023-06-14T06:24:14;96736.16;;;21.31
19196;BMP280;9730;48.926;11.376;2023-06-14T06:26:42;96746.63;;;20.86
19196;BMP280;9730;48.926;11.376;2023-06-14T06:29:09;96739.81;;;21.61
19196;BMP280;9730;48.926;11.376;2023-06-14T06:31:38;96747.78;;;20.92
19196;BMP280;9730;48.926;11.376;2023-06-14T06:34:06;96769.38;;;20.82
19196;BMP280;9730;48.926;11.376;2023-06-14T06:36:34;96761.69;;;21.40
19196;BMP280;9730;48.926;11.376;2023-06-14T06:39:03;96764.91;;;21.83
19196;BMP280;9730;48.926;11.376;2023-06-14T06:41:37;96774.50;;;21.40
19196;BMP280;9730;48.926;11.376;2023-06-14T06:44:06;96710.94;;;22.24
19196;BMP280;9730;48.926;11.376;2023-06-14T06:46:34;96738.22;;;23.04
19196;BMP280;9730;48.926;11.376;2023-06-14T06:49:07;96722.00;;;22.25
19196;BMP280;9730;48.926;11.376;2023-06-14T06:51:35;96694.75;;;23.63
19196;BMP280;9730;48.926;11.376;2023-06-14T06:54:03;96653.84;;;24.58
19196;BMP280;9730;48.926;11.376;2023-06-14T06:56:32;96639.81;;;24.89
19196;BMP280;9730;48.926;11.376;2023-06-14T06:59:00;96578.19;;;25.99
19196;BMP280;9730;48.926;11.376;2023-06-14T07:01:27;96614.38;;;24.43
19196;BMP280;9730;48.926;11.376;2023-06-14T07:03:55;96683.31;;;23.36
19196;BMP280;9730;48.926;11.376;2023-06-14T07:06:24;96707.00;;;23.15
19196;BMP280;9730;48.926;11.376;2023-06-14T07:08:53;96710.88;;;23.57
19196;BMP280;9730;48.926;11.376;2023-06-14T07:11:21;96738.72;;;23.00
19196;BMP280;9730;48.926;11.376;2023-06-14T07:13:49;96706.44;;;23.44
19196;BMP280;9730;48.926;11.376;2023-06-14T07:16:17;96659.78;;;24.44
19196;BMP280;9730;48.926;11.376;2023-06-14T07:18:44;96717.16;;;23.09
19196;BMP280;9730;48.926;11.376;2023-06-14T07:21:12;96721.25;;;23.64
19196;BMP280;9730;48.926;11.376;2023-06-14T07:23:41;96748.53;;;22.97
19196;BMP280;9730;48.926;11.376;2023-06-14T07:26:09;96761.31;;;23.28
19196;BMP280;9730;48.926;11.376;2023-06-14T07:28:37;96759.97;;;23.40
19196;BMP280;9730;48.926;11.376;2023-06-14T07:31:04;96758.47;;;22.99
19196;BMP280;9730;48.926;11.376;2023-06-14T07:33:33;96760.66;;;23.18
19196;BMP280;9730;48.926;11.376;2023-06-14T07:36:00;96818.91;;;22.15
19196;BMP280;9730;48.926;11.376;2023-06-14T07:38:28;96780.28;;;23.27
19196;BMP280;9730;48.926;11.376;2023-06-14T07:40:58;96765.34;;;23.23
19196;BMP280;9730;48.926;11.376;2023-06-14T07:43:25;96755.59;;;22.55
19196;BMP280;9730;48.926;11.376;2023-06-14T07:45:53;96749.16;;;22.83
19196;BMP280;9730;48.926;11.376;2023-06-14T07:48:28;96717.25;;;23.31
19196;BMP280;9730;48.926;11.376;2023-06-14T07:50:55;96662.84;;;25.48
19196;BMP280;9730;48.926;11.376;2023-06-14T07:53:24;96618.44;;;25.87
19196;BMP280;9730;48.926;11.376;2023-06-14T07:55:52;96665.72;;;25.10
19196;BMP280;9730;48.926;11.376;2023-06-14T07:58:21;96655.66;;;25.43
19196;BMP280;9730;48.926;11.376;2023-06-14T08:00:49;96680.63;;;24.71
19196;BMP280;9730;48.926;11.376;2023-06-14T08:03:17;96700.22;;;24.43
19196;BMP280;9730;48.926;11.376;2023-06-14T08:05:46;96701.00;;;23.69
19196;BMP280;9730;48.926;11.376;2023-06-14T08:08:13;96699.16;;;24.07
19196;BMP280;9730;48.926;11.376;2023-06-14T08:10:41;96627.25;;;26.41
19196;BMP280;9730;48.926;11.376;2023-06-14T08:13:09;96597.81;;;26.69
19196;BMP280;9730;48.926;11.376;2023-06-14T08:15:38;96639.81;;;25.32
19196;BMP280;9730;48.926;11.376;2023-06-14T08:18:06;96607.63;;;27.14
19196;BMP280;9730;48.926;11.376;2023-06-14T08:20:34;96561.22;;;27.78
19196;BMP280;9730;48.926;11.376;2023-06-14T08:23:02;96534.69;;;27.57
19196;BMP280;9730;48.926;11.376;2023-06-14T08:25:30;96602.31;;;25.85
19196;BMP280;9730;48.926;11.376;2023-06-14T08:27:58;96619.22;;;25.53
19196;BMP280;9730;48.926;11.376;2023-06-14T08:30:26;96581.28;;;27.50
19196;BMP280;9730;48.926;11.376;2023-06-14T08:32:55;96574.56;;;27.82
19196;BMP280;9730;48.926;11.376;2023-06-14T08:35:31;96571.97;;;27.09
19196;BMP280;9730;48.926;11.376;2023-06-14T08:37:59;96567.44;;;28.48
19196;BMP280;9730;48.926;11.376;2023-06-14T08:40:29;96560.22;;;28.05
19196;BMP280;9730;48.926;11.376;2023-06-14T08:42:57;96507.50;;;30.11
19196;BMP280;9730;48.926;11.376;2023-06-14T08:45:25;96505.19;;;30.81
19196;BMP280;9730;48.926;11.376;2023-06-14T08:47:55;96524.50;;;29.15
19196;BMP280;9730;48.926;11.376;2023-06-14T08:50:26;96555.44;;;29.23
19196;BMP280;9730;48.926;11.376;2023-06-14T08:52:58;96531.91;;;28.55
19196;BMP280;9730;48.926;11.376;2023-06-14T08:55:29;96593.50;;;26.49
19196;BMP280;9730;48.926;11.376;2023-06-14T08:57:58;96653.63;;;25.24
19196;BMP280;9730;48.926;11.376;2023-06-14T09:00:26;96670.72;;;24.01
19196;BMP280;9730;48.926;11.376;2023-06-14T09:02:56;96602.56;;;27.52
19196;BMP280;9730;48.926;11.376;2023-06-14T09:05:25;96630.91;;;26.80
19196;BMP280;9730;48.926;11.376;2023-06-14T09:07:53;96608.25;;;27.22
19196;BMP280;9730;48.926;11.376;2023-06-14T09:10:23;96576.38;;;28.65
19196;BMP280;9730;48.926;11.376;2023-06-14T09:12:52;96561.47;;;29.17
19196;BMP280;9730;48.926;11.376;2023-06-14T09:15:20;96533.47;;;29.19
19196;BMP280;9730;48.926;11.376;2023-06-14T09:17:48;96524.91;;;28.49
19196;BMP280;9730;48.926;11.376;2023-06-14T09:20:17;96580.13;;;26.73
19196;BMP280;9730;48.926;11.376;2023-06-14T09:22:45;96612.59;;;25.65
19196;BMP280;9730;48.926;11.376;2023-06-14T09:25:13;96698.53;;;23.45
19196;BMP280;9730;48.926;11.376;2023-06-14T09:27:51;96633.53;;;25.55
19196;BMP280;9730;48.926;11.376;2023-06-14T09:30:19;96586.16;;;27.26
19196;BMP280;9730;48.926;11.376;2023-06-14T09:32:47;96610.03;;;26.06
19196;BMP280;9730;48.926;11.376;2023-06-14T09:35:18;96588.38;;;28.21
19196;BMP280;9730;48.926;11.376;2023-06-14T09:37:47;96546.69;;;28.48
19196;BMP280;9730;48.926;11.376;2023-06-14T09:40:20;96526.56;;;29.74
19196;BMP280;9730;48.926;11.376;2023-06-14T09:42:48;96573.41;;;28.48
19196;BMP280;9730;48.926;11.376;2023-06-14T09:45:16;96508.75;;;29.47
19196;BMP280;9730;48.926;11.376;2023-06-14T09:47:48;96507.84;;;28.29
19196;BMP280;9730;48.926;11.376;2023-06-14T09:50:27;96491.34;;;30.27
19196;BMP280;9730;48.926;11.376;2023-06-14T09:52:59;96427.22;;;31.96
19196;BMP280;9730;48.926;11.376;2023-06-14T09:55:31;96450.00;;;29.22
19196;BMP280;9730;48.926;11.376;2023-06-14T09:58:00;96427.53;;;31.66
19196;BMP280;9730;48.926;11.376;2023-06-14T10:00:31;96425.03;;;31.93
19196;BMP280;9730;48.926;11.376;2023-06-14T10:03:03;96419.34;;;32.30
19196;BMP280;9730;48.926;11.376;2023-06-14T10:05:35;96410.38;;;31.47
19196;BMP280;9730;48.926;11.376;2023-06-14T10:08:07;96462.19;;;29.52
19196;BMP280;9730;48.926;11.376;2023-06-14T10:10:35;96466.50;;;31.02
19196;BMP280;9730;48.926;11.376;2023-06-14T10:13:06;96452.25;;;32.31
19196;BMP280;9730;48.926;11.376;2023-06-14T10:15:40;96495.41;;;29.44
19196;BMP280;9730;48.926;11.376;2023-06-14T10:18:14;96496.97;;;30.84
19196;BMP280;9730;48.926;11.376;2023-06-14T10:20:54;96479.06;;;31.34
19196;BMP280;9730;48.926;11.376;2023-06-14T10:23:24;96456.41;;;32.94
19196;BMP280;9730;48.926;11.376;2023-06-14T10:25:55;96465.03;;;32.44
19196;BMP280;9730;48.926;11.376;2023-06-14T10:28:26;96476.19;;;32.28
19196;BMP280;9730;48.926;11.376;2023-06-14T10:31:07;96509.75;;;30.67
19196;BMP280;9730;48.926;11.376;2023-06-14T10:33:35;96544.00;;;29.67
19196;BMP280;9730;48.926;11.376;2023-06-14T10:36:25;96543.72;;;29.82
19196;BMP280;9730;48.926;11.376;2023-06-14T10:38:58;96565.16;;;30.02
19196;BMP280;9730;48.926;11.376;2023-06-14T10:41:27;96585.75;;;27.95
19196;BMP280;9730;48.926;11.376;2023-06-14T10:46:53;96594.97;;;29.68
19196;BMP280;9730;48.926;11.376;2023-06-14T10:49:36;96561.66;;;31.16
19196;BMP280;9730;48.926;11.376;2023-06-14T10:52:10;96511.22;;;32.44
19196;BMP280;9730;48.926;11.376;2023-06-14T10:57:39;96526.81;;;30.46
19196;BMP280;9730;48.926;11.376;2023-06-14T11:00:12;96530.34;;;30.27
19196;BMP280;9730;48.926;11.376;2023-06-14T11:02:51;96526.72;;;30.10
19196;BMP280;9730;48.926;11.376;2023-06-14T11:05:25;96552.69;;;28.36
19196;BMP280;9730;48.926;11.376;2023-06-14T11:08:22;96540.03;;;28.71
19196;BMP280;9730;48.926;11.376;2023-06-14T11:10:59;96563.06;;;28.36
19196;BMP280;9730;48.926;11.376;2023-06-14T11:13:27;96608.81;;;25.81
19196;BMP280;9730;48.926;11.376;2023-06-14T11:15:57;96620.38;;;26.81
19196;BMP280;9730;48.926;11.376;2023-06-14T11:18:25;96660.09;;;26.95
19196;BMP280;9730;48.926;11.376;2023-06-14T11:20:54;96650.72;;;27.00
19196;BMP280;9730;48.926;11.376;2023-06-14T11:23:23;96698.66;;;25.36
19196;BMP280;9730;48.926;11.376;2023-06-14T11:25:51;96678.22;;;26.26
19196;BMP280;9730;48.926;11.376;2023-06-14T11:28:19;96684.69;;;26.64
19196;BMP280;9730;48.926;11.376;2023-06-14T11:30:48;96666.75;;;26.14
19196;BMP280;9730;48.926;11.376;2023-06-14T11:33:19;96697.28;;;25.40
19196;BMP280;9730;48.926;11.376;2023-06-14T11:35:47;96723.84;;;24.47
19196;BMP280;9730;48.926;11.376;2023-06-14T11:38:15;96691.53;;;26.29
19196;BMP280;9730;48.926;11.376;2023-06-14T11:40:44;96681.38;;;25.86
19196;BMP280;9730;48.926;11.376;2023-06-14T11:43:12;96741.47;;;24.80
19196;BMP280;9730;48.926;11.376;2023-06-14T11:45:40;96735.72;;;25.64
19196;BMP280;9730;48.926;11.376;2023-06-14T11:50:37;96759.81;;;23.42
19196;BMP280;9730;48.926;11.376;2023-06-14T11:53:06;96721.41;;;25.04
19196;BMP280;9730;48.926;11.376;2023-06-14T11:55:36;96752.25;;;23.40
19196;BMP280;9730;48.926;11.376;2023-06-14T11:58:06;96733.69;;;24.65
19196;BMP280;9730;48.926;11.376;2023-06-14T12:00:35;96739.16;;;24.48
19196;BMP280;9730;48.926;11.376;2023-06-14T12:03:03;96745.38;;;24.76
19196;BMP280;9730;48.926;11.376;2023-06-14T12:05:33;96726.25;;;25.21
19196;BMP280;9730;48.926;11.376;2023-06-14T12:08:02;96683.31;;;26.20
19196;BMP280;9730;48.926;11.376;2023-06-14T12:10:39;96673.44;;;26.50
19196;BMP280;9730;48.926;11.376;2023-06-14T12:13:11;96742.81;;;23.25
19196;BMP280;9730;48.926;11.376;2023-06-14T12:15:39;96709.31;;;23.02
19196;BMP280;9730;48.926;11.376;2023-06-14T12:18:07;96717.25;;;23.31
19196;BMP280;9730;48.926;11.376;2023-06-14T12:20:35;96692.06;;;24.32
19196;BMP280;9730;48.926;11.376;2023-06-14T12:23:04;96664.00;;;24.88
19196;BMP280;9730;48.926;11.376;2023-06-14T12:25:33;96646.59;;;24.90
19196;BMP280;9730;48.926;11.376;2023-06-14T12:28:05;96653.88;;;24.72
19196;BMP280;9730;48.926;11.376;2023-06-14T12:30:35;96609.03;;;25.66
19196;BMP280;9730;48.926;11.376;2023-06-14T12:33:04;96613.78;;;26.04
19196;BMP280;9730;48.926;11.376;2023-06-14T12:35:32;96572.16;;;25.92
19196;BMP280;9730;48.926;11.376;2023-06-14T12:38:00;96584.53;;;25.97
19196;BMP280;9730;48.926;11.376;2023-06-14T12:40:30;96573.13;;;26.33
19196;BMP280;9730;48.926;11.376;2023-06-14T12:42:58;96581.06;;;26.31
19196;BMP280;9730;48.926;11.376;2023-06-14T12:45:26;96584.69;;;25.68
19196;BMP280;9730;48.926;11.376;2023-06-14T12:47:56;96612.25;;;26.09
19196;BMP280;9730;48.926;11.376;2023-06-14T12:50:24;96630.28;;;25.82
19196;BMP280;9730;48.926;11.376;2023-06-14T12:52:52;96658.25;;;25.29
19196;BMP280;9730;48.926;11.376;2023-06-14T12:55:20;96681.91;;;25.18
19196;BMP280;9730;48.926;11.376;2023-06-14T12:57:47;96695.84;;;24.95
19196;BMP280;9730;48.926;11.376;2023-06-14T13:00:16;96686.66;;;24.63
19196;BMP280;9730;48.926;11.376;2023-06-14T13:02:45;96685.00;;;24.85
19196;BMP280;9730;48.926;11.376;2023-06-14T13:05:14;96703.16;;;24.55
19196;BMP280;9730;48.926;11.376;2023-06-14T13:07:42;96700.34;;;23.75
19196;BMP280;9730;48.926;11.376;2023-06-14T13:10:10;96707.78;;;24.45
19196;BMP280;9730;48.926;11.376;2023-06-14T13:12:37;96717.59;;;24.19
19196;BMP280;9730;48.926;11.376;2023-06-14T13:15:06;96678.63;;;24.00
19196;BMP280;9730;48.926;11.376;2023-06-14T13:17:34;96717.50;;;24.12
19196;BMP280;9730;48.926;11.376;2023-06-14T13:20:05;96713.88;;;24.44
19196;BMP280;9730;48.926;11.376;2023-06-14T13:22:35;96755.13;;;24.13
19196;BMP280;9730;48.926;11.376;2023-06-14T13:25:03;96748.09;;;23.77
19196;BMP280;9730;48.926;11.376;2023-06-14T13:27:32;96761.66;;;24.02
19196;BMP280;9730;48.926;11.376;2023-06-14T13:30:00;96776.59;;;23.76
19196;BMP280;9730;48.926;11.376;2023-06-14T13:32:28;96791.06;;;23.85
19196;BMP280;9730;48.926;11.376;2023-06-14T13:34:56;96779.81;;;24.08
19196;BMP280;9730;48.926;11.376;2023-06-14T13:37:24;96771.47;;;24.28
19196;BMP280;9730;48.926;11.376;2023-06-14T13:39:53;96761.31;;;24.57
19196;BMP280;9730;48.926;11.376;2023-06-14T13:42:21;96755.13;;;25.03
19196;BMP280;9730;48.926;11.376;2023-06-14T13:44:49;96751.63;;;24.96
19196;BMP280;9730;48.926;11.376;2023-06-14T13:47:19;96749.88;;;24.74
19196;BMP280;9730;48.926;11.376;2023-06-14T13:49:47;96763.81;;;24.65
19196;BMP280;9730;48.926;11.376;2023-06-14T13:52:15;96736.25;;;24.65
19196;BMP280;9730;48.926;11.376;2023-06-14T13:54:43;96758.47;;;24.22
19196;BMP280;9730;48.926;11.376;2023-06-14T13:57:17;96767.44;;;24.26
19196;BMP280;9730;48.926;11.376;2023-06-14T13:59:44;96764.47;;;24.14
19196;BMP280;9730;48.926;11.376;2023-06-14T14:02:12;96771.28;;;24.38
19196;BMP280;9730;48.926;11.376;2023-06-14T14:04:41;96760.44;;;23.90
19196;BMP280;9730;48.926;11.376;2023-06-14T14:07:09;96771.97;;;24.24
19196;BMP280;9730;48.926;11.376;2023-06-14T14:09:45;96773.69;;;24.09
19196;BMP280;9730;48.926;11.376;2023-06-14T14:12:32;96775.00;;;24.05
19196;BMP280;9730;48.926;11.376;2023-06-14T14:15:15;96761.47;;;24.33
19196;BMP280;9730;48.926;11.376;2023-06-14T14:17:43;96763.66;;;24.44
19196;BMP280;9730;48.926;11.376;2023-06-14T14:20:11;96752.81;;;24.71
19196;BMP280;9730;48.926;11.376;2023-06-14T14:22:42;96757.97;;;24.26
19196;BMP280;9730;48.926;11.376;2023-06-14T14:25:10;96753.72;;;24.33
19196;BMP280;9730;48.926;11.376;2023-06-14T14:27:39;96735.25;;;24.52
19196;BMP280;9730;48.926;11.376;2023-06-14T14:30:08;96730.38;;;24.12
19196;BMP280;9730;48.926;11.376;2023-06-14T14:32:36;96740.63;;;24.65